Time;durP1;ratioP1;P1;durP2;ratioP2;P2;SDS_P1;SDS_P2;PMS_P1;PMS_P2;Temp;Humidity;BMP_temperature;BMP_pressure;BME280_temperature;BME280_humidity;BME280_pressure;Samples;Min_cycle;Max_cycle;Signal;HPM_P1;HPM_P2
2021/04/07 04:33:56;;;;;;;3.58;0.38;;;23.70;99.90;;;;;;5070285;27;20489;-71
2021/04/07 04:36:24;;;;;;;3.75;0.73;;;23.80;99.90;;;;;;5060041;28;20031;-71
2021/04/07 04:38:51;;;;;;;3.70;0.73;;;23.70;99.90;;;;;;5061052;28;20024;-72
2021/04/07 04:41:18;;;;;;;5.05;0.65;;;23.70;99.90;;;;;;5068297;28;20032;-71
2021/04/07 04:43:45;;;;;;;3.60;0.40;;;23.70;99.90;;;;;;5060981;28;20365;-73
2021/04/07 04:46:12;;;;;;;5.05;1.42;;;23.60;99.90;;;;;;5061991;28;20020;-68
2021/04/07 04:48:40;;;;;;;6.53;0.73;;;23.60;99.90;;;;;;5065882;28;20025;-69
2021/04/07 04:51:07;;;;;;;2.83;0.43;;;23.70;99.90;;;;;;5065390;28;20727;-69
2021/04/07 04:53:35;;;;;;;2.72;0.32;;;23.70;99.90;;;;;;5066192;28;20041;-71
2021/04/07 04:56:03;;;;;;;2.13;0.43;;;23.60;99.90;;;;;;5058889;28;20056;-71
2021/04/07 04:58:31;;;;;;;3.65;0.45;;;23.60;99.90;;;;;;5064917;28;20040;-71
2021/04/07 05:00:59;;;;;;;4.25;0.80;;;23.60;99.90;;;;;;5062265;28;20021;-71
2021/04/07 05:03:26;;;;;;;3.58;0.30;;;23.60;99.90;;;;;;5061928;28;20561;-71
2021/04/07 05:05:53;;;;;;;5.13;0.40;;;23.40;99.90;;;;;;5053061;28;20031;-71
2021/04/07 05:08:20;;;;;;;1.70;0.30;;;23.40;99.90;;;;;;5061755;28;20052;-71
2021/04/07 05:10:48;;;;;;;4.35;1.02;;;23.40;99.90;;;;;;5076451;28;20497;-71
2021/04/07 05:13:15;;;;;;;6.60;0.65;;;23.40;99.90;;;;;;5053308;28;20055;-71
2021/04/07 05:15:43;;;;;;;4.55;0.75;;;23.40;99.90;;;;;;5063665;28;20502;-71
2021/04/07 05:18:13;;;;;;;2.50;0.22;;;23.40;99.90;;;;;;5067063;28;20024;-71
2021/04/07 05:20:41;;;;;;;3.70;0.40;;;23.50;99.90;;;;;;5065451;28;20078;-71
2021/04/07 05:23:10;;;;;;;2.70;0.30;;;23.50;99.90;;;;;;5066524;28;20056;-71
2021/04/07 05:25:38;;;;;;;7.95;0.82;;;23.50;99.90;;;;;;5068318;28;20074;-71
2021/04/07 05:28:07;;;;;;;5.50;0.70;;;23.50;99.90;;;;;;5066722;28;20103;-71
2021/04/07 05:33:24;;;;;;;3.60;0.47;;;23.40;99.90;;;;;;5066436;28;20051;-71
2021/04/07 05:35:53;;;;;;;4.43;0.93;;;23.50;99.90;;;;;;5067779;28;20040;-71
2021/04/07 05:38:22;;;;;;;2.97;0.40;;;23.30;99.90;;;;;;5065990;28;20029;-71
2021/04/07 05:40:51;;;;;;;2.67;0.45;;;23.20;99.90;;;;;;5062911;28;20473;-71
2021/04/07 05:43:19;;;;;;;6.40;0.50;;;23.30;99.90;;;;;;5063630;28;20032;-72
2021/04/07 05:45:46;;;;;;;6.93;0.40;;;23.20;99.90;;;;;;5053629;28;20106;-71
2021/04/07 05:48:14;;;;;;;4.70;0.50;;;23.20;99.90;;;;;;5051066;28;20033;-71
2021/04/07 05:50:44;;;;;;;5.15;0.60;;;23.20;99.90;;;;;;5054506;28;20091;-71
2021/04/07 05:53:12;;;;;;;8.65;0.70;;;23.20;99.90;;;;;;5036790;28;20057;-70
2021/04/07 05:55:43;;;;;;;3.25;0.60;;;23.30;99.90;;;;;;5034796;28;20034;-71
2021/04/07 05:58:11;;;;;;;3.30;0.38;;;23.20;99.90;;;;;;5047416;28;20018;-71
2021/04/07 06:00:39;;;;;;;3.13;0.30;;;23.10;99.90;;;;;;5052883;28;21266;-71
2021/04/07 06:03:08;;;;;;;6.63;2.15;;;23.10;99.90;;;;;;5045027;28;20029;-71
2021/04/07 06:05:39;;;;;;;3.33;0.50;;;23.10;99.90;;;;;;5054237;28;20037;-71
2021/04/07 06:08:08;;;;;;;6.72;0.50;;;23.20;99.90;;;;;;5051920;28;20060;-72
2021/04/07 06:10:42;;;;;;;1.20;0.28;;;23.10;99.90;;;;;;5041924;28;20490;-71
2021/04/07 06:13:10;;;;;;;5.47;0.50;;;23.10;99.90;;;;;;5043693;28;20112;-72
2021/04/07 06:15:38;;;;;;;4.75;0.45;;;23.00;99.90;;;;;;5050045;28;20055;-71
2021/04/07 06:18:12;;;;;;;7.53;1.00;;;22.90;99.90;;;;;;5042473;28;20027;-72
2021/04/07 06:20:41;;;;;;;3.78;0.73;;;22.90;99.90;;;;;;5046328;28;20029;-72
2021/04/07 06:23:10;;;;;;;3.45;0.40;;;22.90;99.90;;;;;;5047803;28;20103;-72
2021/04/07 06:25:38;;;;;;;3.83;0.43;;;22.90;99.90;;;;;;5045169;28;20055;-72
2021/04/07 06:28:08;;;;;;;6.47;0.70;;;22.80;99.90;;;;;;5050010;28;20025;-73
2021/04/07 06:30:43;;;;;;;6.10;0.60;;;22.70;99.90;;;;;;5052929;28;20053;-72
2021/04/07 06:33:15;;;;;;;6.00;0.88;;;22.80;99.90;;;;;;5052660;28;20115;-72
2021/04/07 06:35:44;;;;;;;6.18;0.90;;;22.70;99.90;;;;;;5050598;28;20493;-71
2021/04/07 06:38:12;;;;;;;7.97;0.93;;;22.70;99.90;;;;;;5047166;28;20035;-71
2021/04/07 06:40:39;;;;;;;9.27;1.42;;;22.60;99.90;;;;;;5054075;28;20029;-71
2021/04/07 06:43:07;;;;;;;3.67;0.52;;;22.60;99.90;;;;;;5052495;28;20021;-71
2021/04/07 06:45:37;;;;;;;4.10;0.82;;;22.50;99.90;;;;;;5054159;28;20116;-71
2021/04/07 06:48:14;;;;;;;5.63;0.50;;;22.50;99.90;;;;;;5052410;28;20100;-72
2021/04/07 06:50:44;;;;;;;4.38;0.82;;;22.50;99.90;;;;;;5054392;28;20107;-71
2021/04/07 06:53:11;;;;;;;6.65;1.27;;;22.60;99.90;;;;;;5051983;28;20037;-72
2021/04/07 06:55:39;;;;;;;9.23;1.45;;;22.50;99.90;;;;;;5045975;28;20021;-72
2021/04/07 06:58:08;;;;;;;9.23;1.05;;;22.50;99.90;;;;;;5046332;28;20039;-72
2021/04/07 07:00:38;;;;;;;9.45;0.80;;;22.40;99.90;;;;;;5052462;28;20121;-72
2021/04/07 07:03:08;;;;;;;3.45;0.30;;;22.30;99.90;;;;;;5050713;28;20029;-72
2021/04/07 07:05:38;;;;;;;4.45;0.47;;;22.30;99.90;;;;;;5051588;28;20037;-72
2021/04/07 07:08:08;;;;;;;5.70;0.95;;;22.30;99.90;;;;;;5051193;28;20021;-72
2021/04/07 07:10:40;;;;;;;5.47;1.05;;;22.20;99.90;;;;;;5053360;28;20412;-72
2021/04/07 07:13:09;;;;;;;4.43;0.85;;;22.20;99.90;;;;;;5039807;28;20421;-72
2021/04/07 07:15:38;;;;;;;4.78;1.05;;;22.10;99.90;;;;;;5047425;28;20025;-72
2021/04/07 07:18:06;;;;;;;3.70;0.60;;;22.10;99.90;;;;;;5051246;28;20082;-72
2021/04/07 07:20:39;;;;;;;3.92;0.88;;;22.00;99.90;;;;;;5052185;28;20037;-71
2021/04/07 07:23:06;;;;;;;6.78;1.00;;;22.00;99.90;;;;;;5056761;28;20028;-72
2021/04/07 07:25:34;;;;;;;3.92;1.35;;;22.00;99.90;;;;;;5065774;28;20393;-72
2021/04/07 07:28:07;;;;;;;2.75;0.30;;;21.90;99.90;;;;;;5047875;28;20029;-72
2021/04/07 07:30:46;;;;;;;4.03;0.60;;;21.90;99.90;;;;;;5051135;28;20025;-72
2021/04/07 07:33:16;;;;;;;3.78;0.43;;;21.90;99.90;;;;;;5047503;28;20044;-72
2021/04/07 07:35:45;;;;;;;7.68;0.95;;;21.90;99.90;;;;;;5053272;28;20389;-72
2021/04/07 07:38:19;;;;;;;5.93;0.60;;;21.90;99.90;;;;;;5050876;28;20112;-71
2021/04/07 07:40:47;;;;;;;4.88;1.00;;;22.00;99.90;;;;;;5053113;28;20060;-72
2021/04/07 07:43:14;;;;;;;3.67;0.52;;;22.00;99.90;;;;;;5051329;28;20146;-71
2021/04/07 07:45:43;;;;;;;2.13;0.47;;;22.00;99.90;;;;;;5052925;28;20032;-71
2021/04/07 07:48:19;;;;;;;3.13;0.73;;;22.00;99.90;;;;;;5051523;28;20477;-71
2021/04/07 07:50:48;;;;;;;4.32;0.75;;;22.00;99.90;;;;;;5038257;28;20411;-71
2021/04/07 07:53:21;;;;;;;5.38;0.70;;;22.00;99.90;;;;;;5047667;28;20033;-71
2021/04/07 07:55:54;;;;;;;7.40;1.13;;;22.00;99.90;;;;;;5052921;28;20025;-71
2021/04/07 07:58:28;;;;;;;4.10;0.80;;;22.10;99.90;;;;;;5051121;28;20032;-71
2021/04/07 08:01:10;;;;;;;3.58;0.77;;;22.10;99.90;;;;;;5052996;28;20037;-70
2021/04/07 08:03:37;;;;;;;3.88;1.02;;;22.10;99.90;;;;;;5051198;28;20072;-71
2021/04/07 08:06:05;;;;;;;4.82;0.65;;;22.10;99.90;;;;;;5051567;28;20074;-71
2021/04/07 08:08:33;;;;;;;5.55;0.60;;;22.10;99.90;;;;;;5051053;28;20029;-71
2021/04/07 08:11:03;;;;;;;4.72;1.02;;;22.10;99.90;;;;;;5052716;28;20032;-71
2021/04/07 08:13:39;;;;;;;9.38;2.97;;;22.20;99.90;;;;;;5050656;28;20094;-71
2021/04/07 08:16:08;;;;;;;3.75;0.50;;;22.20;99.90;;;;;;5050870;28;20029;-71
2021/04/07 08:18:36;;;;;;;4.32;1.17;;;22.10;99.90;;;;;;5049731;28;20025;-70
2021/04/07 08:21:04;;;;;;;11.40;1.60;;;22.10;99.90;;;;;;5047319;28;20144;-71
2021/04/07 08:23:34;;;;;;;3.70;0.85;;;22.10;99.90;;;;;;5046713;28;20025;-72
2021/04/07 08:26:03;;;;;;;5.75;1.20;;;22.10;99.90;;;;;;5043933;28;20017;-71
2021/04/07 08:28:31;;;;;;;5.32;0.90;;;22.10;99.90;;;;;;5040662;28;20516;-71
2021/04/07 08:30:59;;;;;;;6.32;1.15;;;22.10;99.90;;;;;;5048311;28;20054;-71
2021/04/07 08:33:27;;;;;;;3.90;1.35;;;22.10;99.90;;;;;;5045266;28;20073;-70
2021/04/07 08:35:54;;;;;;;6.80;1.60;;;22.20;99.90;;;;;;5034881;28;20038;-71
2021/04/07 08:38:32;;;;;;;6.25;0.80;;;22.10;99.90;;;;;;5037721;28;20034;-73
2021/04/07 08:41:23;;;;;;;4.90;0.98;;;22.20;99.90;;;;;;5046292;28;20033;-71
2021/04/07 08:43:53;;;;;;;7.93;0.90;;;22.10;99.90;;;;;;5049379;28;20085;-71
2021/04/07 08:46:27;;;;;;;6.20;1.33;;;22.10;99.90;;;;;;5050216;28;20414;-71
2021/04/07 08:48:55;;;;;;;6.82;1.15;;;22.20;99.90;;;;;;5051410;28;20548;-71
2021/04/07 08:51:26;;;;;;;7.78;1.05;;;22.10;99.90;;;;;;5047673;28;20171;-71
2021/04/07 08:53:57;;;;;;;5.07;1.23;;;22.10;99.90;;;;;;5045763;28;20028;-72
2021/04/07 08:56:29;;;;;;;8.55;0.90;;;22.10;99.90;;;;;;5049550;28;20439;-71
2021/04/07 08:58:58;;;;;;;5.03;0.90;;;22.00;99.90;;;;;;5048330;28;20135;-72
2021/04/07 09:01:34;;;;;;;5.05;0.98;;;22.00;99.90;;;;;;5046319;28;20021;-72
2021/04/07 09:04:13;;;;;;;6.30;1.42;;;22.00;99.90;;;;;;5037649;28;20429;-72
2021/04/07 09:06:58;;;;;;;5.80;0.80;;;22.00;99.90;;;;;;5047386;28;20029;-72
2021/04/07 09:09:26;;;;;;;8.70;1.33;;;22.00;99.90;;;;;;5051321;28;20052;-72
2021/04/07 09:11:54;;;;;;;5.80;1.10;;;22.00;99.90;;;;;;5050413;28;20500;-73
2021/04/07 09:14:22;;;;;;;5.03;0.65;;;22.00;99.90;;;;;;5066218;28;20116;-72
2021/04/07 09:16:50;;;;;;;4.20;0.68;;;22.00;99.90;;;;;;5050310;28;20025;-72
2021/04/07 09:19:23;;;;;;;4.63;0.88;;;21.80;99.90;;;;;;5051553;28;20119;-72
2021/04/07 09:22:13;;;;;;;6.38;0.82;;;21.70;99.90;;;;;;5047630;28;20029;-72
2021/04/07 09:24:43;;;;;;;4.78;0.73;;;21.50;99.90;;;;;;5033806;28;20068;-72
2021/04/07 09:27:25;;;;;;;6.18;1.13;;;21.30;99.90;;;;;;5040876;28;20063;-72
2021/04/07 09:30:01;;;;;;;2.53;0.30;;;21.20;99.90;;;;;;5042436;28;20111;-72
2021/04/07 09:32:30;;;;;;;9.07;0.88;;;20.80;99.90;;;;;;5053298;28;20045;-71
2021/04/07 09:34:59;;;;;;;8.75;0.95;;;20.80;99.90;;;;;;5057581;28;20074;-71
2021/04/07 09:37:26;;;;;;;8.70;1.00;;;20.60;99.90;;;;;;5049284;28;20060;-72
2021/04/07 09:39:54;;;;;;;7.43;0.93;;;20.70;99.90;;;;;;5041376;28;20032;-72
2021/04/07 09:42:22;;;;;;;11.95;1.70;;;20.50;99.90;;;;;;5050206;28;20492;-72
2021/04/07 09:44:49;;;;;;;9.90;1.75;;;20.30;99.90;;;;;;5056350;28;20021;-72
2021/04/07 09:47:17;;;;;;;6.60;1.38;;;20.30;99.90;;;;;;5053794;28;20029;-71
2021/04/07 09:49:44;;;;;;;7.95;1.55;;;20.30;99.90;;;;;;5053748;28;20037;-72
2021/04/07 09:52:11;;;;;;;5.90;1.08;;;20.30;99.90;;;;;;5054895;28;20096;-71
2021/04/07 09:54:40;;;;;;;5.57;1.20;;;20.40;99.90;;;;;;5055112;28;20044;-72
2021/04/07 09:57:11;;;;;;;6.95;1.27;;;20.40;99.90;;;;;;5041010;28;20017;-72
2021/04/07 09:59:42;;;;;;;6.63;0.90;;;20.40;99.90;;;;;;5055226;28;20104;-72
2021/04/07 10:02:11;;;;;;;7.63;0.98;;;20.50;99.90;;;;;;5053833;28;20032;-73
2021/04/07 10:04:41;;;;;;;5.00;1.10;;;20.50;99.90;;;;;;5056130;28;20083;-73
2021/04/07 10:07:17;;;;;;;6.30;1.50;;;20.50;99.90;;;;;;5052082;28;20025;-73
2021/04/07 10:09:46;;;;;;;5.18;1.17;;;20.50;99.90;;;;;;5051890;28;20025;-73
2021/04/07 10:12:15;;;;;;;6.97;1.80;;;20.40;99.90;;;;;;5053303;28;20401;-73
2021/04/07 10:14:54;;;;;;;8.60;1.70;;;20.40;99.90;;;;;;5050579;28;20032;-72
2021/04/07 10:17:30;;;;;;;8.68;2.00;;;20.50;99.90;;;;;;5051872;28;20055;-73
2021/04/07 10:20:17;;;;;;;7.07;2.10;;;20.50;99.90;;;;;;5049635;28;20031;-72
2021/04/07 10:22:49;;;;;;;10.70;2.35;;;20.50;99.90;;;;;;5053403;28;20045;-73
2021/04/07 10:25:22;;;;;;;6.90;1.60;;;20.70;99.90;;;;;;5069990;28;20025;-72
2021/04/07 10:27:50;;;;;;;13.07;2.50;;;20.70;99.90;;;;;;5052188;28;20090;-73
2021/04/07 10:30:21;;;;;;;8.13;2.47;;;20.80;99.90;;;;;;5055212;28;20653;-73
2021/04/07 10:32:50;;;;;;;6.65;1.80;;;20.70;99.90;;;;;;5053245;28;20409;-72
2021/04/07 10:35:27;;;;;;;10.70;1.70;;;20.70;99.90;;;;;;5070262;28;20086;-72
2021/04/07 10:38:04;;;;;;;12.18;2.83;;;20.60;99.90;;;;;;5052999;28;20071;-72
2021/04/07 10:40:34;;;;;;;9.02;2.25;;;20.60;99.90;;;;;;5054686;28;20013;-72
2021/04/07 10:43:15;;;;;;;12.20;2.40;;;20.70;99.90;;;;;;5045703;28;20055;-72
2021/04/07 10:46:06;;;;;;;9.15;2.55;;;20.70;99.90;;;;;;5054052;28;20028;-72
2021/04/07 10:48:34;;;;;;;9.95;1.90;;;20.70;99.90;;;;;;5051266;28;20045;-73
2021/04/07 10:51:02;;;;;;;9.20;3.10;;;20.70;99.90;;;;;;5054752;28;20055;-72
2021/04/07 10:53:36;;;;;;;7.22;2.13;;;20.70;99.90;;;;;;5052081;28;20037;-71
2021/04/07 10:56:14;;;;;;;;;;;20.70;99.90;;;;;;5050668;28;20041;-71
2021/04/07 10:58:43;;;;;;;11.48;2.55;;;20.80;99.90;;;;;;5050711;28;19912;-72
2021/04/07 11:01:11;;;;;;;10.00;2.00;;;20.80;99.90;;;;;;5051307;28;20032;-73
2021/04/07 11:03:38;;;;;;;12.52;1.70;;;20.70;99.90;;;;;;5046648;28;20031;-73
2021/04/07 11:06:06;;;;;;;10.68;2.22;;;20.50;99.90;;;;;;5054629;28;20021;-73
2021/04/07 11:08:40;;;;;;;9.35;1.77;;;20.50;99.90;;;;;;5049618;28;20051;-73
2021/04/07 11:11:08;;;;;;;7.10;2.30;;;20.50;99.90;;;;;;5045377;28;20460;-73
2021/04/07 11:13:35;;;;;;;8.43;1.55;;;20.60;99.90;;;;;;5049426;28;20053;-72
2021/04/07 11:16:10;;;;;;;9.50;2.08;;;20.50;99.90;;;;;;5046645;28;20087;-72
2021/04/07 11:18:41;;;;;;;7.93;2.22;;;20.40;99.90;;;;;;5041775;28;20026;-73
2021/04/07 11:21:09;;;;;;;9.10;2.03;;;20.40;99.90;;;;;;5040035;28;20039;-72
2021/04/07 11:23:37;;;;;;;7.60;1.70;;;20.50;99.90;;;;;;5051187;28;20043;-73
2021/04/07 11:26:09;;;;;;;5.13;1.40;;;20.50;99.90;;;;;;5042513;28;20059;-73
2021/04/07 11:28:37;;;;;;;9.07;1.90;;;20.40;99.90;;;;;;5049036;28;20021;-72
2021/04/07 11:31:13;;;;;;;5.18;1.42;;;20.40;99.90;;;;;;5041620;28;20041;-73
2021/04/07 11:38:50;;;;;;;6.10;1.50;;;20.30;99.90;;;;;;5042682;28;20637;-73
2021/04/07 11:46:37;;;;;;;4.72;1.13;;;20.30;99.90;;;;;;5044511;28;20029;-74
2021/04/07 11:49:06;;;;;;;5.38;1.20;;;20.30;99.90;;;;;;5046901;28;20033;-74
2021/04/07 11:51:38;;;;;;;3.75;1.15;;;20.30;99.90;;;;;;5049318;28;20061;-75
2021/04/07 11:54:06;;;;;;;5.05;1.23;;;20.30;99.90;;;;;;5065375;28;20064;-73
2021/04/07 11:56:34;;;;;;;3.17;1.05;;;20.20;99.90;;;;;;5051375;28;20546;-75
2021/04/07 11:59:02;;;;;;;5.07;1.40;;;20.30;99.90;;;;;;5048552;28;20414;-75
2021/04/07 12:01:29;;;;;;;4.20;1.60;;;20.20;99.90;;;;;;5061485;28;20025;-73
2021/04/07 12:03:56;;;;;;;5.72;1.10;;;20.30;99.90;;;;;;5042358;28;20017;-75
2021/04/07 12:06:24;;;;;;;4.68;1.15;;;20.30;99.90;;;;;;5049774;28;20021;-74
2021/04/07 12:08:51;;;;;;;3.25;0.90;;;20.30;99.90;;;;;;5049805;28;20048;-75
2021/04/07 12:11:18;;;;;;;4.28;1.30;;;20.40;99.90;;;;;;5047203;28;20031;-72
2021/04/07 12:13:46;;;;;;;6.45;1.13;;;20.30;99.90;;;;;;5047344;28;20044;-73
2021/04/07 12:16:13;;;;;;;3.90;1.38;;;20.30;99.90;;;;;;5051533;28;20100;-73
2021/04/07 12:18:40;;;;;;;5.63;0.90;;;20.30;99.90;;;;;;5051178;28;20029;-75
2021/04/07 12:21:08;;;;;;;5.15;0.80;;;20.30;99.90;;;;;;5052039;28;20075;-74
2021/04/07 12:23:35;;;;;;;4.72;0.93;;;20.30;99.90;;;;;;5051228;28;20079;-73
2021/04/07 12:26:03;;;;;;;4.22;1.00;;;20.20;99.90;;;;;;5052288;28;20060;-74
2021/04/07 12:28:30;;;;;;;8.80;1.50;;;20.10;99.90;;;;;;5051286;28;20033;-73
2021/04/07 12:30:58;;;;;;;3.53;0.77;;;20.10;99.90;;;;;;5051646;28;20021;-74
2021/04/07 12:33:28;;;;;;;3.33;1.00;;;20.10;99.90;;;;;;5048974;28;20505;-72
2021/04/07 12:35:55;;;;;;;7.97;1.52;;;20.10;99.90;;;;;;5050418;28;20021;-72
2021/04/07 12:38:25;;;;;;;4.07;1.45;;;20.10;99.90;;;;;;5050147;28;20028;-72
2021/04/07 12:40:54;;;;;;;6.18;1.42;;;20.00;99.90;;;;;;5052335;28;20025;-72
2021/04/07 12:43:21;;;;;;;3.83;1.42;;;20.00;99.90;;;;;;5043074;28;20386;-72
2021/04/07 12:45:49;;;;;;;6.05;1.27;;;20.00;99.90;;;;;;5048863;28;20457;-72
2021/04/07 12:48:17;;;;;;;7.40;1.60;;;19.90;99.90;;;;;;5045771;28;20029;-72
2021/04/07 12:50:46;;;;;;;8.15;2.33;;;20.00;99.90;;;;;;5048553;28;20067;-72
2021/04/07 12:53:13;;;;;;;6.55;2.15;;;19.90;99.90;;;;;;5045475;28;20488;-72
2021/04/07 12:55:40;;;;;;;4.18;1.48;;;19.90;99.90;;;;;;5055224;28;20028;-72
2021/04/07 12:58:10;;;;;;;4.32;1.20;;;19.90;99.90;;;;;;5047590;28;20033;-72
2021/04/07 13:00:37;;;;;;;5.55;1.48;;;19.90;99.90;;;;;;5049413;28;20062;-72
2021/04/07 13:03:04;;;;;;;5.40;1.55;;;19.90;99.90;;;;;;5050158;28;20041;-72
2021/04/07 13:05:32;;;;;;;8.68;2.15;;;19.80;99.90;;;;;;5052637;28;20025;-72
2021/04/07 13:07:59;;;;;;;6.30;1.40;;;19.80;99.90;;;;;;5050017;28;20022;-72
2021/04/07 13:10:26;;;;;;;4.43;1.55;;;19.80;99.90;;;;;;5036475;28;20026;-72
2021/04/07 13:12:54;;;;;;;5.30;1.65;;;19.80;99.90;;;;;;5047825;28;20037;-72
2021/04/07 13:15:21;;;;;;;7.55;1.67;;;19.70;99.90;;;;;;5052659;28;20021;-72
2021/04/07 13:17:48;;;;;;;6.07;2.28;;;19.70;99.90;;;;;;5054384;28;20052;-73
2021/04/07 13:20:19;;;;;;;4.88;1.50;;;19.60;99.90;;;;;;5056253;28;20048;-72
2021/04/07 13:22:47;;;;;;;5.60;1.80;;;19.70;99.90;;;;;;5054830;28;20071;-73
2021/04/07 13:25:14;;;;;;;8.18;3.45;;;19.70;99.90;;;;;;5052163;28;20111;-73
2021/04/07 13:27:41;;;;;;;6.30;2.10;;;19.70;99.90;;;;;;5046617;28;20029;-72
2021/04/07 13:30:11;;;;;;;6.65;2.90;;;19.60;99.90;;;;;;5052543;28;20078;-72
2021/04/07 13:32:40;;;;;;;5.45;2.08;;;19.70;99.90;;;;;;5050843;28;20056;-72
2021/04/07 13:35:12;;;;;;;8.30;1.77;;;19.70;99.90;;;;;;5047777;28;20107;-73
2021/04/07 13:37:46;;;;;;;6.03;1.30;;;19.70;99.90;;;;;;5052836;28;20041;-73
2021/04/07 13:42:59;;;;;;;6.75;1.63;;;19.60;99.90;;;;;;5047702;28;20147;-73
2021/04/07 13:45:29;;;;;;;7.18;2.05;;;19.50;99.90;;;;;;5055106;28;20432;-73
2021/04/07 13:48:10;;;;;;;4.97;1.85;;;19.50;99.90;;;;;;5051218;28;20060;-72
2021/04/07 13:50:37;;;;;;;7.93;1.73;;;19.60;99.90;;;;;;5051646;28;20029;-73
2021/04/07 13:53:05;;;;;;;7.22;1.65;;;19.60;99.90;;;;;;5050390;28;20072;-73
2021/04/07 13:55:35;;;;;;;6.88;1.30;;;19.50;99.90;;;;;;5036255;28;20083;-72
2021/04/07 13:58:04;;;;;;;6.13;1.60;;;19.60;99.90;;;;;;5052750;28;20409;-73
2021/04/07 14:00:31;;;;;;;5.45;1.50;;;19.60;99.90;;;;;;5038130;28;20060;-73
2021/04/07 14:02:59;;;;;;;6.30;1.42;;;19.70;99.90;;;;;;5051316;28;20403;-73
2021/04/07 14:05:26;;;;;;;6.90;2.08;;;19.60;99.90;;;;;;5035911;28;20029;-73
2021/04/07 14:07:56;;;;;;;5.75;1.90;;;19.60;99.90;;;;;;5052870;28;20068;-72
2021/04/07 14:10:24;;;;;;;6.18;1.00;;;19.60;99.90;;;;;;5049273;28;20056;-73
2021/04/07 14:12:57;;;;;;;5.35;1.50;;;19.60;99.90;;;;;;5048043;28;20040;-73
2021/04/07 14:15:24;;;;;;;13.43;1.77;;;19.50;99.90;;;;;;5052320;28;20054;-72
2021/04/07 14:17:53;;;;;;;4.68;1.63;;;19.50;99.90;;;;;;5052534;28;20032;-73
2021/04/07 14:20:21;;;;;;;6.38;1.63;;;19.50;99.90;;;;;;5053557;28;20406;-72
2021/04/07 14:22:48;;;;;;;5.70;1.92;;;19.50;99.90;;;;;;5043095;28;20033;-72
2021/04/07 14:25:20;;;;;;;3.33;1.38;;;19.50;99.90;;;;;;5040936;28;20079;-73
2021/04/07 14:27:48;;;;;;;4.75;1.85;;;19.50;99.90;;;;;;5068454;28;20025;-73
2021/04/07 14:30:18;;;;;;;8.82;2.55;;;19.50;99.90;;;;;;5054468;28;20021;-73
2021/04/07 14:32:46;;;;;;;5.32;1.67;;;19.50;99.90;;;;;;5051311;28;20547;-72
2021/04/07 14:35:13;;;;;;;5.88;1.40;;;19.50;99.90;;;;;;5054743;28;20034;-73
2021/04/07 14:37:41;;;;;;;7.50;2.22;;;19.40;99.90;;;;;;5050522;28;20098;-73
2021/04/07 14:40:09;;;;;;;9.80;1.70;;;19.40;99.90;;;;;;5054975;28;20036;-72
2021/04/07 14:42:36;;;;;;;4.82;1.40;;;19.40;99.90;;;;;;5050290;28;20035;-72
2021/04/07 14:45:07;;;;;;;6.85;1.98;;;19.40;99.90;;;;;;5052950;28;20041;-73
2021/04/07 14:47:35;;;;;;;4.80;1.40;;;19.40;99.90;;;;;;5051492;28;20029;-73
2021/04/07 14:50:02;;;;;;;8.13;1.63;;;19.30;99.90;;;;;;5054773;28;20029;-73
2021/04/07 14:52:30;;;;;;;11.40;1.88;;;19.40;99.90;;;;;;5043604;28;20056;-72
2021/04/07 14:54:59;;;;;;;5.32;1.42;;;19.30;99.90;;;;;;5017233;28;20029;-72
2021/04/07 14:57:27;;;;;;;5.97;1.50;;;19.30;99.90;;;;;;5049287;28;20017;-72
2021/04/07 14:59:54;;;;;;;9.13;1.83;;;19.30;99.90;;;;;;5054408;28;20119;-72
2021/04/07 15:02:21;;;;;;;5.90;1.45;;;19.30;99.90;;;;;;5052761;28;20025;-72
2021/04/07 15:04:49;;;;;;;6.32;2.10;;;19.40;99.90;;;;;;5052513;28;20030;-72
2021/04/07 15:07:16;;;;;;;9.10;2.10;;;19.40;99.90;;;;;;5050692;28;20075;-72
2021/04/07 15:09:43;;;;;;;8.77;2.60;;;19.40;99.90;;;;;;5054468;28;20540;-72
2021/04/07 15:12:11;;;;;;;9.15;3.03;;;19.50;99.90;;;;;;5052759;28;20025;-72
2021/04/07 15:14:39;;;;;;;7.97;2.53;;;19.50;99.90;;;;;;5051164;28;20029;-72
2021/04/07 15:17:06;;;;;;;6.78;2.70;;;19.40;99.90;;;;;;5049398;28;20477;-72
2021/04/07 15:19:33;;;;;;;10.48;3.20;;;19.50;99.90;;;;;;5048081;28;20028;-72
2021/04/07 15:22:01;;;;;;;8.80;2.92;;;19.50;99.90;;;;;;5050909;28;20035;-72
2021/04/07 15:24:29;;;;;;;7.32;2.28;;;19.50;99.90;;;;;;5042022;28;20021;-72
2021/04/07 15:27:07;;;;;;;8.07;2.20;;;19.50;99.90;;;;;;5051180;28;20020;-72
2021/04/07 15:29:34;;;;;;;7.03;1.65;;;19.40;99.90;;;;;;5048689;28;20028;-72
2021/04/07 15:32:01;;;;;;;7.28;2.25;;;19.40;99.90;;;;;;5050460;28;20049;-72
2021/04/07 15:34:28;;;;;;;10.75;2.60;;;19.40;99.90;;;;;;5054224;28;20055;-72
2021/04/07 15:36:56;;;;;;;8.05;2.80;;;19.30;99.90;;;;;;5052572;28;20020;-72
2021/04/07 15:39:23;;;;;;;8.10;2.63;;;19.40;99.90;;;;;;5050912;28;20147;-72
2021/04/07 15:41:50;;;;;;;7.22;2.63;;;19.30;99.90;;;;;;5045973;28;20028;-72
2021/04/07 15:44:17;;;;;;;9.23;2.13;;;19.30;99.90;;;;;;5051930;28;20552;-72
2021/04/07 15:46:45;;;;;;;5.72;2.10;;;19.30;99.90;;;;;;5051855;28;20025;-72
2021/04/07 15:49:12;;;;;;;9.50;3.17;;;19.30;99.90;;;;;;5032191;28;20112;-72
2021/04/07 15:51:40;;;;;;;7.47;2.22;;;19.20;99.90;;;;;;5050524;28;20017;-72
2021/04/07 15:54:07;;;;;;;8.43;2.15;;;19.20;99.90;;;;;;5052696;28;20044;-72
2021/04/07 15:56:35;;;;;;;6.45;2.30;;;19.20;99.90;;;;;;5045555;28;20025;-72
2021/04/07 15:59:02;;;;;;;6.85;2.35;;;19.20;99.90;;;;;;5052788;28;20362;-72
2021/04/07 16:01:29;;;;;;;13.35;2.30;;;19.20;99.90;;;;;;5050611;28;20052;-72
2021/04/07 16:03:56;;;;;;;10.18;2.92;;;19.20;99.90;;;;;;5049712;28;20020;-72
2021/04/07 16:06:24;;;;;;;8.45;2.90;;;19.20;99.90;;;;;;5048323;28;20485;-72
2021/04/07 16:08:51;;;;;;;8.93;2.88;;;19.20;99.90;;;;;;5046925;28;20033;-72
2021/04/07 16:11:18;;;;;;;25.85;2.92;;;19.20;99.90;;;;;;5050105;28;20025;-72
2021/04/07 16:13:46;;;;;;;10.35;2.15;;;19.20;99.90;;;;;;5048612;28;20032;-71
2021/04/07 16:16:13;;;;;;;9.00;2.22;;;19.10;99.90;;;;;;5059763;28;20496;-72
2021/04/07 16:18:41;;;;;;;9.52;2.65;;;19.10;99.90;;;;;;5048754;28;20063;-72
2021/04/07 16:21:08;;;;;;;9.90;2.40;;;19.20;99.90;;;;;;5049371;28;20075;-72
2021/04/07 16:23:35;;;;;;;5.63;2.30;;;19.10;99.90;;;;;;5046724;28;20354;-72
2021/04/07 16:26:03;;;;;;;8.13;2.47;;;19.10;99.90;;;;;;5048732;28;20029;-72
2021/04/07 16:28:30;;;;;;;13.82;3.42;;;19.00;99.90;;;;;;5046443;28;20033;-72
2021/04/07 16:30:59;;;;;;;9.18;3.45;;;18.90;99.90;;;;;;5049178;28;20032;-71
2021/04/07 16:33:26;;;;;;;8.73;3.63;;;18.90;99.90;;;;;;5047380;28;20040;-72
2021/04/07 16:35:53;;;;;;;10.48;3.22;;;18.80;99.90;;;;;;5041255;28;20659;-72
2021/04/07 16:38:20;;;;;;;9.13;3.55;;;18.90;99.90;;;;;;5050791;28;20035;-72
2021/04/07 16:40:48;;;;;;;7.00;3.80;;;18.90;99.90;;;;;;5053414;28;20025;-72
2021/04/07 16:43:15;;;;;;;7.45;3.40;;;18.90;99.90;;;;;;5051267;28;20017;-72
2021/04/07 16:45:42;;;;;;;11.15;3.22;;;18.90;99.90;;;;;;5052981;28;20108;-72
2021/04/07 16:48:10;;;;;;;11.50;3.65;;;18.80;99.90;;;;;;5047669;28;20067;-72
2021/04/07 16:50:37;;;;;;;6.18;3.33;;;18.80;99.90;;;;;;5048671;28;20018;-72
2021/04/07 16:53:04;;;;;;;9.50;3.80;;;18.80;99.90;;;;;;5046600;28;20033;-72
2021/04/07 16:55:31;;;;;;;7.00;2.97;;;18.90;99.90;;;;;;5049684;28;20103;-72
2021/04/07 16:57:59;;;;;;;11.23;3.30;;;18.90;99.90;;;;;;5045911;28;20048;-72
2021/04/07 17:00:26;;;;;;;9.30;3.33;;;18.80;99.90;;;;;;5044623;28;20036;-72
2021/04/07 17:02:53;;;;;;;8.65;3.22;;;18.80;99.90;;;;;;5048454;28;20513;-72
2021/04/07 17:05:20;;;;;;;7.80;3.65;;;18.70;99.90;;;;;;5049330;28;20021;-72
2021/04/07 17:07:48;;;;;;;7.03;3.45;;;18.70;99.90;;;;;;5048081;28;20059;-72
2021/04/07 17:10:15;;;;;;;7.93;3.50;;;18.70;99.90;;;;;;5050751;28;20021;-72
2021/04/07 17:12:42;;;;;;;9.30;3.70;;;18.70;99.90;;;;;;5048754;28;20033;-72
2021/04/07 17:15:10;;;;;;;7.07;3.45;;;18.80;99.90;;;;;;5049374;28;20527;-72
2021/04/07 17:17:38;;;;;;;8.50;3.28;;;18.80;99.90;;;;;;5049654;28;20052;-71
2021/04/07 17:20:06;;;;;;;8.18;3.22;;;18.80;99.90;;;;;;5051768;28;20386;-71
2021/04/07 17:22:34;;;;;;;6.78;3.08;;;18.80;99.90;;;;;;5043829;28;20397;-71
2021/04/07 17:25:01;;;;;;;7.90;3.00;;;18.70;99.90;;;;;;5046373;28;20021;-71
2021/04/07 17:27:28;;;;;;;8.65;3.10;;;18.80;99.90;;;;;;5046320;28;20020;-74
2021/04/07 17:29:56;;;;;;;8.40;3.13;;;18.70;99.90;;;;;;5041922;28;20051;-74
2021/04/07 17:32:23;;;;;;;6.75;3.13;;;18.70;99.90;;;;;;5042420;28;20077;-72
2021/04/07 17:34:50;;;;;;;7.13;2.88;;;18.80;99.90;;;;;;5036451;28;20020;-72
2021/04/07 17:37:17;;;;;;;6.93;2.95;;;18.80;99.90;;;;;;5050674;28;20516;-72
2021/04/07 17:39:45;;;;;;;4.82;3.05;;;18.80;99.90;;;;;;5052721;28;20025;-72
2021/04/07 17:42:12;;;;;;;7.30;3.38;;;18.90;99.90;;;;;;5051849;28;20021;-72
2021/04/07 17:44:39;;;;;;;7.40;2.83;;;18.90;99.90;;;;;;5055833;28;20048;-72